Time;durP1;ratioP1;P1;durP2;ratioP2;P2;SDS_P1;SDS_P2;PMS_P1;PMS_P2;Temp;Humidity;BMP_temperature;BMP_pressure;BME280_temperature;BME280_humidity;BME280_pressure;Samples;Min_cycle;Max_cycle;Signal;HPM_P1;HPM_P2
2024/03/18 00:00:47;;;;;;;7.80;4.43;;;;;;;;;;2065161;28;20480;-50
2024/03/18 00:01:48;;;;;;;8.63;4.35;;;;;;;;;;2065596;28;20031;-50
2024/03/18 00:02:52;;;;;;;7.25;4.07;;;;;;;;;;2060774;28;20026;-47
2024/03/18 00:03:54;;;;;;;10.43;4.43;;;;;;;;;;2058288;28;20494;-48
2024/03/18 00:04:56;;;;;;;8.45;4.32;;;;;;;;;;2065209;28;20397;-49
2024/03/18 00:05:58;;;;;;;7.78;4.45;;;;;;;;;;2065768;28;20050;-47
2024/03/18 00:06:59;;;;;;;7.50;4.65;;;;;;;;;;2061291;28;20500;-51
2024/03/18 00:08:00;;;;;;;6.70;3.20;;;;;;;;;;2064922;28;20405;-47
2024/03/18 00:09:02;;;;;;;6.32;3.10;;;;;;;;;;2062857;28;20034;-48
2024/03/18 00:10:04;;;;;;;5.63;3.50;;;;;;;;;;2059192;28;20050;-48
2024/03/18 00:11:06;;;;;;;5.53;2.95;;;;;;;;;;2056292;28;20026;-48
2024/03/18 00:12:08;;;;;;;4.60;3.40;;;;;;;;;;2057139;28;20023;-47
2024/03/18 00:13:09;;;;;;;5.35;2.80;;;;;;;;;;2057773;28;20030;-49
2024/03/18 00:14:11;;;;;;;6.90;3.08;;;;;;;;;;2061717;28;20097;-48
2024/03/18 00:15:14;;;;;;;6.13;3.47;;;;;;;;;;2064491;28;20173;-48
2024/03/18 00:16:15;;;;;;;5.50;3.40;;;;;;;;;;2063815;28;20022;-48
2024/03/18 00:17:17;;;;;;;5.15;3.25;;;;;;;;;;2060290;28;20493;-47
2024/03/18 00:18:18;;;;;;;9.25;3.15;;;;;;;;;;2061302;28;20046;-49
2024/03/18 00:19:20;;;;;;;3.75;3.00;;;;;;;;;;2057012;28;20504;-48
2024/03/18 00:20:21;;;;;;;5.47;3.33;;;;;;;;;;2057498;28;20030;-50
2024/03/18 00:21:23;;;;;;;5.30;3.63;;;;;;;;;;2056847;28;20545;-48
2024/03/18 00:22:25;;;;;;;7.13;3.63;;;;;;;;;;2056928;28;20027;-48
2024/03/18 00:23:26;;;;;;;5.85;3.20;;;;;;;;;;2058576;28;20073;-47
2024/03/18 00:24:27;;;;;;;7.30;3.35;;;;;;;;;;2057801;28;20038;-49
2024/03/18 00:25:29;;;;;;;4.95;3.10;;;;;;;;;;2058838;28;20007;-46
2024/03/18 00:26:30;;;;;;;5.88;3.08;;;;;;;;;;2057980;28;20133;-47
2024/03/18 00:27:31;;;;;;;6.85;4.03;;;;;;;;;;2057636;28;20041;-47
2024/03/18 00:28:33;;;;;;;6.38;3.05;;;;;;;;;;2058395;28;20092;-47
2024/03/18 00:29:34;;;;;;;6.60;2.97;;;;;;;;;;2056830;28;20025;-47
2024/03/18 00:30:35;;;;;;;5.95;3.38;;;;;;;;;;2057246;28;20025;-47
2024/03/18 00:31:37;;;;;;;5.75;3.60;;;;;;;;;;2059989;28;20034;-47
2024/03/18 00:32:43;;;;;;;8.07;3.55;;;;;;;;;;2065532;28;20081;-47
2024/03/18 00:33:44;;;;;;;5.35;3.50;;;;;;;;;;2065327;28;20022;-48
2024/03/18 00:34:45;;;;;;;6.35;2.97;;;;;;;;;;2065191;28;20042;-47
2024/03/18 00:35:47;;;;;;;5.22;3.28;;;;;;;;;;2060884;28;20125;-46
2024/03/18 00:36:48;;;;;;;7.07;3.00;;;;;;;;;;2062304;28;20018;-46
2024/03/18 00:37:49;;;;;;;5.63;3.22;;;;;;;;;;2065433;28;20497;-48
2024/03/18 00:38:51;;;;;;;5.15;3.00;;;;;;;;;;2065461;28;20027;-47
2024/03/18 00:39:52;;;;;;;5.22;3.42;;;;;;;;;;2065456;28;20736;-48
2024/03/18 00:41:44;;;;;;;6.10;3.10;;;;;;;;;;2065673;28;20482;-48
2024/03/18 00:42:18;;;;;;;5.90;3.22;;;;;;;;;;2063829;28;20019;-53
2024/03/18 00:43:19;;;;;;;5.35;3.30;;;;;;;;;;2064287;28;20030;-54
2024/03/18 00:44:23;;;;;;;7.43;3.17;;;;;;;;;;2057065;28;20018;-53
2024/03/18 00:45:24;;;;;;;6.13;3.30;;;;;;;;;;2057202;28;20019;-52
2024/03/18 00:46:26;;;;;;;7.75;2.90;;;;;;;;;;2064206;28;20042;-52
2024/03/18 00:47:28;;;;;;;4.97;2.95;;;;;;;;;;2065548;28;20026;-52
2024/03/18 00:48:29;;;;;;;5.72;3.17;;;;;;;;;;2065240;28;20489;-52
2024/03/18 00:49:30;;;;;;;5.72;3.10;;;;;;;;;;2065280;28;20389;-53
2024/03/18 00:50:32;;;;;;;7.45;2.90;;;;;;;;;;2065589;28;20089;-52
2024/03/18 00:51:33;;;;;;;4.60;2.67;;;;;;;;;;2064396;28;20027;-53
2024/03/18 00:52:35;;;;;;;7.65;3.08;;;;;;;;;;2065247;28;20485;-52
2024/03/18 00:53:36;;;;;;;5.97;2.60;;;;;;;;;;2065422;28;20093;-52
2024/03/18 00:54:39;;;;;;;4.43;3.17;;;;;;;;;;2064630;28;20444;-53
2024/03/18 00:55:40;;;;;;;5.22;3.00;;;;;;;;;;2064658;28;20050;-49
2024/03/18 00:56:42;;;;;;;4.93;3.20;;;;;;;;;;2057757;28;20106;-52
2024/03/18 00:57:43;;;;;;;4.93;3.22;;;;;;;;;;2059839;28;20374;-50
2024/03/18 00:58:44;;;;;;;4.68;2.95;;;;;;;;;;2064667;28;20030;-51
2024/03/18 00:59:46;;;;;;;6.43;3.25;;;;;;;;;;2064472;28;20032;-51
2024/03/18 01:00:47;;;;;;;5.55;3.08;;;;;;;;;;2064640;28;20089;-52
2024/03/18 01:01:48;;;;;;;3.83;2.60;;;;;;;;;;2065324;28;20022;-52
2024/03/18 01:02:49;;;;;;;4.60;2.65;;;;;;;;;;2065199;28;20027;-52
2024/03/18 01:03:51;;;;;;;4.72;3.25;;;;;;;;;;2061740;28;20053;-51
2024/03/18 01:04:53;;;;;;;5.32;2.90;;;;;;;;;;2064866;28;20027;-52
2024/03/18 01:05:54;;;;;;;5.68;2.95;;;;;;;;;;2065095;28;20125;-51
2024/03/18 01:06:58;;;;;;;6.13;2.85;;;;;;;;;;2065381;28;20014;-52
2024/03/18 01:07:59;;;;;;;5.97;3.10;;;;;;;;;;2065006;28;20025;-54
2024/03/18 01:09:00;;;;;;;5.88;3.17;;;;;;;;;;2065149;28;20046;-53
2024/03/18 01:10:01;;;;;;;5.82;2.95;;;;;;;;;;2065277;28;20026;-46
2024/03/18 01:11:03;;;;;;;4.25;3.05;;;;;;;;;;2065127;28;20025;-46
2024/03/18 01:12:05;;;;;;;4.63;2.90;;;;;;;;;;2064393;28;20393;-46
2024/03/18 01:13:11;;;;;;;5.43;2.97;;;;;;;;;;2064652;28;20097;-47
2024/03/18 01:14:13;;;;;;;5.15;2.85;;;;;;;;;;2059264;28;20577;-47
2024/03/18 01:15:15;;;;;;;4.85;3.00;;;;;;;;;;2057458;28;20419;-48
2024/03/18 01:16:20;;;;;;;4.32;3.15;;;;;;;;;;2063864;28;20377;-49
2024/03/18 01:17:21;;;;;;;7.00;3.10;;;;;;;;;;2062198;28;20046;-46
2024/03/18 01:18:23;;;;;;;5.22;2.83;;;;;;;;;;2064582;28;20057;-47
2024/03/18 01:19:25;;;;;;;7.53;3.35;;;;;;;;;;2065194;28;20041;-48
2024/03/18 01:20:26;;;;;;;5.30;3.10;;;;;;;;;;2064981;28;20022;-46
2024/03/18 01:21:28;;;;;;;5.35;3.28;;;;;;;;;;2065299;28;20034;-47
2024/03/18 01:22:30;;;;;;;5.50;2.88;;;;;;;;;;2064915;28;20482;-48
2024/03/18 01:23:31;;;;;;;6.22;3.40;;;;;;;;;;2061683;28;20595;-46
2024/03/18 01:24:32;;;;;;;4.68;2.72;;;;;;;;;;2063704;28;20037;-47
2024/03/18 01:25:34;;;;;;;5.57;2.90;;;;;;;;;;2065037;28;20058;-47
2024/03/18 01:26:36;;;;;;;4.55;3.00;;;;;;;;;;2065197;28;20342;-46
2024/03/18 01:27:38;;;;;;;4.00;2.97;;;;;;;;;;2065214;28;20143;-47
2024/03/18 01:28:39;;;;;;;7.53;3.33;;;;;;;;;;2064199;28;20078;-47
2024/03/18 01:29:41;;;;;;;4.35;2.90;;;;;;;;;;2064510;28;20038;-47
2024/03/18 01:30:43;;;;;;;6.70;3.17;;;;;;;;;;2065230;28;20022;-47
2024/03/18 01:31:44;;;;;;;4.50;3.00;;;;;;;;;;2064830;28;20026;-52
2024/03/18 01:32:45;;;;;;;5.10;3.00;;;;;;;;;;2065151;28;20033;-51
2024/03/18 01:33:47;;;;;;;4.63;3.25;;;;;;;;;;2063780;28;20022;-50
2024/03/18 01:34:48;;;;;;;5.85;3.47;;;;;;;;;;2058576;28;20035;-52
2024/03/18 01:35:50;;;;;;;5.15;3.13;;;;;;;;;;2064461;28;20019;-52
2024/03/18 01:36:51;;;;;;;4.50;2.65;;;;;;;;;;2064941;28;20093;-53
2024/03/18 01:37:53;;;;;;;7.70;3.25;;;;;;;;;;2064992;28;20056;-53
2024/03/18 01:38:54;;;;;;;6.38;3.08;;;;;;;;;;2064534;28;20014;-53
2024/03/18 01:39:56;;;;;;;3.88;2.50;;;;;;;;;;2064231;28;20128;-53
2024/03/18 01:40:57;;;;;;;5.45;3.03;;;;;;;;;;2065201;28;20089;-49
2024/03/18 01:41:59;;;;;;;6.90;3.33;;;;;;;;;;2064974;28;20539;-51
2024/03/18 01:43:00;;;;;;;5.53;2.92;;;;;;;;;;2064849;28;20477;-52
2024/03/18 01:44:01;;;;;;;6.38;3.03;;;;;;;;;;2062281;28;20029;-52
2024/03/18 01:45:06;;;;;;;6.00;3.45;;;;;;;;;;2062715;28;20022;-53
2024/03/18 01:46:17;;;;;;;5.47;2.90;;;;;;;;;;2059173;28;20033;-47
2024/03/18 01:47:18;;;;;;;;;;;;;;;;;;2065680;28;20093;-51
2024/03/18 01:48:19;;;;;;;3.60;2.60;;;;;;;;;;2064844;28;19925;-54
2024/03/18 01:49:20;;;;;;;4.00;2.63;;;;;;;;;;2064797;28;20022;-53
2024/03/18 01:50:22;;;;;;;6.25;2.88;;;;;;;;;;2064496;28;20026;-52
2024/03/18 01:51:24;;;;;;;5.82;3.20;;;;;;;;;;2056406;28;20109;-52
2024/03/18 01:52:25;;;;;;;5.25;3.28;;;;;;;;;;2063985;28;20030;-50
2024/03/18 01:53:27;;;;;;;5.45;2.85;;;;;;;;;;2064943;28;20023;-53
2024/03/18 01:54:28;;;;;;;3.70;2.90;;;;;;;;;;2064346;28;20050;-47
2024/03/18 01:55:29;;;;;;;5.90;3.42;;;;;;;;;;2064985;28;20114;-51
2024/03/18 01:56:30;;;;;;;5.20;3.22;;;;;;;;;;2060433;28;20406;-51
2024/03/18 01:57:32;;;;;;;5.53;2.90;;;;;;;;;;2059569;28;20030;-52
2024/03/18 01:58:33;;;;;;;5.80;3.35;;;;;;;;;;2063854;28;20438;-52
2024/03/18 01:59:34;;;;;;;6.32;3.35;;;;;;;;;;2063979;28;20566;-53
2024/03/18 02:00:41;;;;;;;4.57;2.78;;;;;;;;;;2064245;28;20466;-53
2024/03/18 02:01:42;;;;;;;6.47;3.38;;;;;;;;;;2062774;28;20015;-53
2024/03/18 02:02:43;;;;;;;6.30;3.05;;;;;;;;;;2064833;28;20470;-52
2024/03/18 02:03:45;;;;;;;4.22;2.92;;;;;;;;;;2064432;28;20650;-54
2024/03/18 02:04:46;;;;;;;3.88;2.90;;;;;;;;;;2064421;28;20033;-53
2024/03/18 02:05:47;;;;;;;3.65;2.80;;;;;;;;;;2063940;28;20097;-53
2024/03/18 02:06:49;;;;;;;6.40;3.80;;;;;;;;;;2064095;28;20034;-51
2024/03/18 02:07:51;;;;;;;7.53;3.40;;;;;;;;;;2056884;28;20031;-51
2024/03/18 02:08:52;;;;;;;4.88;3.20;;;;;;;;;;2059763;28;20022;-52
2024/03/18 02:09:54;;;;;;;6.75;3.30;;;;;;;;;;2055268;28;20111;-48
2024/03/18 02:10:55;;;;;;;6.72;3.30;;;;;;;;;;2056001;28;20584;-48
2024/03/18 02:11:57;;;;;;;3.72;2.88;;;;;;;;;;2058370;28;20510;-48
2024/03/18 02:13:04;;;;;;;5.55;3.35;;;;;;;;;;2064844;28;20466;-48
2024/03/18 02:14:12;;;;;;;4.95;3.17;;;;;;;;;;2063078;28;20064;-48
2024/03/18 02:15:14;;;;;;;4.75;2.67;;;;;;;;;;2055841;28;20410;-49
2024/03/18 02:16:15;;;;;;;4.18;2.90;;;;;;;;;;2056026;28;20720;-48
2024/03/18 02:17:17;;;;;;;5.68;3.38;;;;;;;;;;2058934;28;20109;-48
2024/03/18 02:18:18;;;;;;;4.10;3.28;;;;;;;;;;2064206;28;20445;-47
2024/03/18 02:19:20;;;;;;;4.72;2.78;;;;;;;;;;2057901;28;20031;-47
2024/03/18 02:20:24;;;;;;;7.05;3.42;;;;;;;;;;2059071;28;20026;-47
2024/03/18 02:21:25;;;;;;;6.35;3.05;;;;;;;;;;2063413;28;20073;-47
2024/03/18 02:22:27;;;;;;;5.03;3.08;;;;;;;;;;2063587;28;20041;-47
2024/03/18 02:23:29;;;;;;;5.72;3.25;;;;;;;;;;2064442;28;20014;-48
2024/03/18 02:24:30;;;;;;;4.40;2.97;;;;;;;;;;2064082;28;20030;-47
2024/03/18 02:25:31;;;;;;;4.60;3.28;;;;;;;;;;2060808;28;20105;-48
2024/03/18 02:26:36;;;;;;;5.70;3.15;;;;;;;;;;2057234;28;20043;-47
2024/03/18 02:27:37;;;;;;;4.07;2.95;;;;;;;;;;2056199;28;20035;-52
2024/03/18 02:28:42;;;;;;;5.40;3.33;;;;;;;;;;2063908;28;20010;-51
2024/03/18 02:29:43;;;;;;;4.68;2.95;;;;;;;;;;2062986;28;20125;-51
2024/03/18 02:30:44;;;;;;;5.85;2.83;;;;;;;;;;2062785;28;20412;-52
2024/03/18 02:31:46;;;;;;;6.53;3.15;;;;;;;;;;2063724;28;20026;-52
2024/03/18 02:32:47;;;;;;;4.30;3.28;;;;;;;;;;2064491;28;20124;-52
2024/03/18 02:33:48;;;;;;;4.88;2.95;;;;;;;;;;2064636;28;20034;-52
2024/03/18 02:34:50;;;;;;;7.28;3.75;;;;;;;;;;2062165;28;20084;-52
2024/03/18 02:35:51;;;;;;;6.55;3.63;;;;;;;;;;2064424;28;20042;-51
2024/03/18 02:36:53;;;;;;;4.95;2.90;;;;;;;;;;2064031;28;20041;-50
2024/03/18 02:37:54;;;;;;;6.22;3.20;;;;;;;;;;2063667;28;20018;-53
2024/03/18 02:38:57;;;;;;;4.63;3.05;;;;;;;;;;2064427;28;20477;-52
2024/03/18 02:40:07;;;;;;;4.72;3.15;;;;;;;;;;2062062;28;20015;-51
2024/03/18 02:41:08;;;;;;;4.35;3.03;;;;;;;;;;2062445;28;20465;-51
2024/03/18 02:42:09;;;;;;;6.18;3.75;;;;;;;;;;2064623;28;20069;-50
2024/03/18 02:43:11;;;;;;;5.68;3.40;;;;;;;;;;2056749;28;20023;-48
2024/03/18 02:44:13;;;;;;;5.90;3.38;;;;;;;;;;2059643;28;20381;-51
2024/03/18 02:45:14;;;;;;;7.50;3.85;;;;;;;;;;2064351;28;20034;-49
2024/03/18 02:46:15;;;;;;;5.70;3.10;;;;;;;;;;2064513;28;20113;-52
2024/03/18 02:47:17;;;;;;;3.92;3.13;;;;;;;;;;2064510;28;20019;-51
2024/03/18 02:48:19;;;;;;;5.07;3.63;;;;;;;;;;2064665;28;20014;-51
2024/03/18 02:49:20;;;;;;;5.00;3.40;;;;;;;;;;2063770;28;20030;-52
2024/03/18 02:50:21;;;;;;;5.68;3.30;;;;;;;;;;2055840;28;20027;-48
2024/03/18 02:51:23;;;;;;;5.05;2.90;;;;;;;;;;2055682;28;20031;-51
2024/03/18 02:52:24;;;;;;;5.30;3.40;;;;;;;;;;2060643;28;20023;-52
2024/03/18 02:53:25;;;;;;;7.18;3.78;;;;;;;;;;2064324;28;20018;-51
2024/03/18 02:54:26;;;;;;;5.13;3.25;;;;;;;;;;2064398;28;20018;-52
2024/03/18 02:55:28;;;;;;;5.68;3.22;;;;;;;;;;2061266;28;20033;-51
2024/03/18 02:56:29;;;;;;;4.55;3.10;;;;;;;;;;2064625;28;20331;-51
2024/03/18 02:57:30;;;;;;;5.32;2.65;;;;;;;;;;2058752;28;20026;-51
2024/03/18 02:58:32;;;;;;;4.45;3.28;;;;;;;;;;2057443;28;20103;-51
2024/03/18 02:59:34;;;;;;;4.90;2.85;;;;;;;;;;2064563;28;20604;-52
2024/03/18 03:00:35;;;;;;;6.53;3.42;;;;;;;;;;2061789;28;20022;-52
2024/03/18 03:01:37;;;;;;;5.78;3.38;;;;;;;;;;2063962;28;20030;-51
2024/03/18 03:02:38;;;;;;;3.95;3.38;;;;;;;;;;2063651;28;20022;-50
2024/03/18 03:03:40;;;;;;;5.97;3.10;;;;;;;;;;2063462;28;20018;-51
2024/03/18 03:04:41;;;;;;;6.93;3.38;;;;;;;;;;2063762;28;20033;-52
2024/03/18 03:05:42;;;;;;;5.07;3.47;;;;;;;;;;2063369;28;20066;-47
2024/03/18 03:06:43;;;;;;;5.35;3.13;;;;;;;;;;2064490;28;20025;-47
2024/03/18 03:07:46;;;;;;;5.47;3.22;;;;;;;;;;2056962;28;20402;-46
2024/03/18 03:08:47;;;;;;;4.25;3.30;;;;;;;;;;2059680;28;20055;-48
2024/03/18 03:09:49;;;;;;;4.45;3.05;;;;;;;;;;2056138;28;20110;-48
2024/03/18 03:10:51;;;;;;;5.10;3.10;;;;;;;;;;2063866;28;20032;-47
2024/03/18 03:11:52;;;;;;;4.57;2.92;;;;;;;;;;2064500;28;20015;-47
2024/03/18 03:12:53;;;;;;;5.10;3.35;;;;;;;;;;2062962;28;20022;-48
2024/03/18 03:13:55;;;;;;;4.97;2.92;;;;;;;;;;2064204;28;20022;-46
2024/03/18 03:14:56;;;;;;;6.28;3.30;;;;;;;;;;2062330;28;20029;-48
2024/03/18 03:15:57;;;;;;;5.55;3.20;;;;;;;;;;2064441;28;20022;-46
2024/03/18 03:16:59;;;;;;;4.63;3.05;;;;;;;;;;2063295;28;20029;-47
2024/03/18 03:18:00;;;;;;;5.18;3.17;;;;;;;;;;2057470;28;20056;-46
2024/03/18 03:19:01;;;;;;;4.85;3.55;;;;;;;;;;2064347;28;20062;-47
2024/03/18 03:20:08;;;;;;;4.95;3.25;;;;;;;;;;2064177;28;20026;-46
2024/03/18 03:21:09;;;;;;;4.07;3.08;;;;;;;;;;2064985;28;20441;-46
2024/03/18 03:22:11;;;;;;;5.10;2.80;;;;;;;;;;2065279;28;20014;-46
2024/03/18 03:23:13;;;;;;;7.22;3.33;;;;;;;;;;2062836;28;20034;-46
2024/03/18 03:24:15;;;;;;;4.68;2.80;;;;;;;;;;2066084;28;20038;-46
2024/03/18 03:25:16;;;;;;;4.72;3.28;;;;;;;;;;2065872;28;20026;-46
2024/03/18 03:26:18;;;;;;;4.00;3.15;;;;;;;;;;2065719;28;20023;-47
2024/03/18 03:27:19;;;;;;;4.45;3.10;;;;;;;;;;2066091;28;20038;-45
2024/03/18 03:28:21;;;;;;;5.03;3.10;;;;;;;;;;2065817;28;20097;-46
2024/03/18 03:29:22;;;;;;;3.97;2.65;;;;;;;;;;2065938;28;20064;-46
2024/03/18 03:30:23;;;;;;;5.63;3.20;;;;;;;;;;2065988;28;20097;-48
2024/03/18 03:31:24;;;;;;;5.65;3.20;;;;;;;;;;2065831;28;20041;-47
2024/03/18 03:32:27;;;;;;;4.03;2.78;;;;;;;;;;2065996;28;20485;-46
2024/03/18 03:33:28;;;;;;;6.47;3.47;;;;;;;;;;2058580;28;20069;-47
2024/03/18 03:34:30;;;;;;;5.60;3.45;;;;;;;;;;2060775;28;20025;-45
2024/03/18 03:35:31;;;;;;;4.20;3.17;;;;;;;;;;2060851;28;20031;-46
2024/03/18 03:36:34;;;;;;;4.78;3.30;;;;;;;;;;2058810;28;20019;-47
2024/03/18 03:37:36;;;;;;;4.22;2.78;;;;;;;;;;2059862;28;20073;-46
2024/03/18 03:38:38;;;;;;;9.75;3.25;;;;;;;;;;2065726;28;20495;-47
2024/03/18 03:39:40;;;;;;;5.72;2.97;;;;;;;;;;2065668;28;20026;-46
2024/03/18 03:40:50;;;;;;;4.20;3.08;;;;;;;;;;2065114;28;20355;-47
2024/03/18 03:41:52;;;;;;;5.30;3.50;;;;;;;;;;2050757;28;20011;-47
2024/03/18 03:42:54;;;;;;;6.70;3.15;;;;;;;;;;2053939;28;20050;-46
2024/03/18 03:43:56;;;;;;;7.95;3.40;;;;;;;;;;2057469;28;20118;-47
2024/03/18 03:44:57;;;;;;;4.18;3.05;;;;;;;;;;2065839;28;20030;-46
2024/03/18 03:45:59;;;;;;;3.70;2.88;;;;;;;;;;2065834;28;20080;-46
2024/03/18 03:47:00;;;;;;;6.32;2.70;;;;;;;;;;2065951;28;20389;-46
2024/03/18 03:48:02;;;;;;;4.65;3.00;;;;;;;;;;2065670;28;20097;-47
2024/03/18 03:49:03;;;;;;;4.13;3.33;;;;;;;;;;2064971;28;20006;-46
2024/03/18 03:50:06;;;;;;;4.32;2.55;;;;;;;;;;2065173;28;20014;-46
2024/03/18 03:51:08;;;;;;;4.80;3.00;;;;;;;;;;2065795;28;20014;-47
2024/03/18 03:52:09;;;;;;;3.85;2.83;;;;;;;;;;2065438;28;20030;-46
2024/03/18 03:53:10;;;;;;;6.20;2.80;;;;;;;;;;2064872;28;20029;-46
2024/03/18 03:54:13;;;;;;;4.47;2.67;;;;;;;;;;2063087;28;20070;-45
2024/03/18 03:55:15;;;;;;;3.22;2.70;;;;;;;;;;2064994;28;20034;-46
2024/03/18 03:56:16;;;;;;;4.68;2.80;;;;;;;;;;2057130;28;20023;-47
2024/03/18 03:57:17;;;;;;;6.13;3.40;;;;;;;;;;2063800;28;20446;-46
2024/03/18 03:58:20;;;;;;;3.83;2.50;;;;;;;;;;2065796;28;20050;-46
2024/03/18 03:59:21;;;;;;;4.43;2.97;;;;;;;;;;2065453;28;20520;-47
2024/03/18 04:00:23;;;;;;;5.18;3.40;;;;;;;;;;2065180;28;20055;-46
2024/03/18 04:01:24;;;;;;;7.55;3.60;;;;;;;;;;2065738;28;20019;-45
2024/03/18 04:02:26;;;;;;;4.78;3.13;;;;;;;;;;2065508;28;20019;-46
2024/03/18 04:03:28;;;;;;;6.47;3.45;;;;;;;;;;2063731;28;20034;-46
2024/03/18 04:04:29;;;;;;;5.38;3.65;;;;;;;;;;2064775;28;20027;-46
2024/03/18 04:05:30;;;;;;;4.95;3.17;;;;;;;;;;2056851;28;20029;-47
2024/03/18 04:06:33;;;;;;;6.32;4.07;;;;;;;;;;2064865;28;20034;-46
2024/03/18 04:07:34;;;;;;;5.88;3.40;;;;;;;;;;2064808;28;20030;-46
2024/03/18 04:08:35;;;;;;;3.95;3.00;;;;;;;;;;2064799;28;20489;-47
2024/03/18 04:09:37;;;;;;;8.18;3.88;;;;;;;;;;2065206;28;20022;-47
2024/03/18 04:10:38;;;;;;;6.40;2.97;;;;;;;;;;2064782;28;20026;-46
2024/03/18 04:11:39;;;;;;;4.30;2.90;;;;;;;;;;2063923;28;20033;-47
2024/03/18 04:12:41;;;;;;;4.32;3.40;;;;;;;;;;2057679;28;20126;-47
2024/03/18 04:13:42;;;;;;;4.53;3.22;;;;;;;;;;2058994;28;20038;-47
2024/03/18 04:14:44;;;;;;;4.78;3.17;;;;;;;;;;2058035;28;20054;-48
2024/03/18 04:15:47;;;;;;;5.22;3.30;;;;;;;;;;2063741;28;20038;-49
2024/03/18 04:16:48;;;;;;;6.38;3.45;;;;;;;;;;2063051;28;20018;-48
2024/03/18 04:17:50;;;;;;;4.45;3.60;;;;;;;;;;2057626;28;20103;-48
2024/03/18 04:18:52;;;;;;;5.38;3.13;;;;;;;;;;2064286;28;20827;-48
2024/03/18 04:19:54;;;;;;;5.80;3.13;;;;;;;;;;2058993;28;20016;-47
2024/03/18 04:20:55;;;;;;;7.13;3.53;;;;;;;;;;2057805;28;20026;-48
2024/03/18 04:21:56;;;;;;;4.93;3.25;;;;;;;;;;2064788;28;20018;-48
2024/03/18 04:22:58;;;;;;;5.18;3.15;;;;;;;;;;2063331;28;20947;-47
2024/03/18 04:24:00;;;;;;;5.70;3.47;;;;;;;;;;2062235;28;20144;-48
2024/03/18 04:25:01;;;;;;;5.47;3.45;;;;;;;;;;2063925;28;20014;-49
2024/03/18 04:26:06;;;;;;;7.82;3.60;;;;;;;;;;2064675;28;20411;-48
2024/03/18 04:27:07;;;;;;;6.05;3.38;;;;;;;;;;2065258;28;20362;-48
2024/03/18 04:28:09;;;;;;;5.15;3.05;;;;;;;;;;2064766;28;20032;-47
2024/03/18 04:29:10;;;;;;;8.05;4.95;;;;;;;;;;2065589;28;20125;-49
2024/03/18 04:30:19;;;;;;;6.97;5.30;;;;;;;;;;2064364;28;20018;-47
2024/03/18 04:31:20;;;;;;;6.03;4.38;;;;;;;;;;2064656;28;20058;-47
2024/03/18 04:32:22;;;;;;;4.50;3.60;;;;;;;;;;2065112;28;20042;-47
2024/03/18 04:33:23;;;;;;;6.93;4.10;;;;;;;;;;2064639;28;20181;-47
2024/03/18 04:34:26;;;;;;;7.25;3.53;;;;;;;;;;2065405;28;20026;-47
2024/03/18 04:35:28;;;;;;;5.68;3.53;;;;;;;;;;2065476;28;20033;-47
2024/03/18 04:36:29;;;;;;;5.97;3.83;;;;;;;;;;2064425;28;20030;-52
2024/03/18 04:37:31;;;;;;;6.00;3.15;;;;;;;;;;2065556;28;20038;-53
2024/03/18 04:38:32;;;;;;;4.55;3.38;;;;;;;;;;2065109;28;20037;-52
2024/03/18 04:39:33;;;;;;;3.65;3.00;;;;;;;;;;2064759;28;20026;-52
2024/03/18 04:40:35;;;;;;;6.53;3.28;;;;;;;;;;2064821;28;20021;-52
2024/03/18 04:41:36;;;;;;;7.53;3.70;;;;;;;;;;2064801;28;20485;-54
2024/03/18 04:42:37;;;;;;;6.47;3.75;;;;;;;;;;2064716;28;20531;-52
2024/03/18 04:43:39;;;;;;;7.45;3.80;;;;;;;;;;2061951;28;20023;-51
2024/03/18 04:44:40;;;;;;;5.95;3.85;;;;;;;;;;2064275;28;20097;-51
2024/03/18 04:45:41;;;;;;;5.03;3.50;;;;;;;;;;2063440;28;20044;-54
2024/03/18 04:46:43;;;;;;;6.43;3.42;;;;;;;;;;2065494;28;20036;-52
2024/03/18 04:47:45;;;;;;;5.63;3.45;;;;;;;;;;2065349;28;20018;-52
2024/03/18 04:48:46;;;;;;;6.00;3.55;;;;;;;;;;2065408;28;20031;-54
2024/03/18 04:49:47;;;;;;;5.90;3.30;;;;;;;;;;2065398;28;20469;-53
2024/03/18 04:50:49;;;;;;;5.05;3.40;;;;;;;;;;2063305;28;20018;-52
2024/03/18 04:51:50;;;;;;;7.00;3.20;;;;;;;;;;2064654;28;20551;-48
2024/03/18 04:52:52;;;;;;;4.80;3.30;;;;;;;;;;2064592;28;20081;-52
2024/03/18 04:53:54;;;;;;;6.03;3.60;;;;;;;;;;2061172;28;20096;-51
2024/03/18 04:54:55;;;;;;;7.78;3.70;;;;;;;;;;2064608;28;20035;-51
2024/03/18 04:55:56;;;;;;;5.88;3.40;;;;;;;;;;2064456;28;20026;-53
2024/03/18 04:56:58;;;;;;;6.53;3.70;;;;;;;;;;2065243;28;20042;-53
2024/03/18 04:57:59;;;;;;;6.90;3.45;;;;;;;;;;2065166;28;20381;-47
2024/03/18 04:59:00;;;;;;;5.95;3.58;;;;;;;;;;2061955;28;20474;-47
2024/03/18 05:00:05;;;;;;;6.45;3.75;;;;;;;;;;2057117;28;20030;-47
2024/03/18 05:01:06;;;;;;;4.50;3.25;;;;;;;;;;2057455;28;20049;-47
2024/03/18 05:02:09;;;;;;;5.30;3.38;;;;;;;;;;2058625;28;20513;-47
2024/03/18 05:03:10;;;;;;;5.78;3.80;;;;;;;;;;2064433;28;20038;-48
2024/03/18 05:04:11;;;;;;;6.53;3.72;;;;;;;;;;2063654;28;20113;-47
2024/03/18 05:05:13;;;;;;;4.82;3.45;;;;;;;;;;2062942;28;20057;-47
2024/03/18 05:06:15;;;;;;;6.03;3.50;;;;;;;;;;2058171;28;20477;-48
2024/03/18 05:07:18;;;;;;;4.72;3.20;;;;;;;;;;2060445;28;20042;-48
2024/03/18 05:08:19;;;;;;;5.18;3.40;;;;;;;;;;2054739;28;20448;-48
2024/03/18 05:09:20;;;;;;;5.70;3.50;;;;;;;;;;2059789;28;20053;-48
2024/03/18 05:10:22;;;;;;;4.00;2.97;;;;;;;;;;2059865;28;20030;-47
2024/03/18 05:11:24;;;;;;;5.72;3.70;;;;;;;;;;2064517;28;20034;-48
2024/03/18 05:12:25;;;;;;;4.25;2.90;;;;;;;;;;2064327;28;20022;-48
2024/03/18 05:13:26;;;;;;;5.25;3.17;;;;;;;;;;2056321;28;20082;-48
2024/03/18 05:14:28;;;;;;;4.50;3.00;;;;;;;;;;2062744;28;20061;-48
2024/03/18 05:15:29;;;;;;;5.65;3.30;;;;;;;;;;2064846;28;20076;-48
2024/03/18 05:16:37;;;;;;;5.15;3.25;;;;;;;;;;2064024;28;20007;-47
2024/03/18 05:17:39;;;;;;;6.80;3.47;;;;;;;;;;2065235;28;20022;-47
2024/03/18 05:18:40;;;;;;;6.28;3.17;;;;;;;;;;2064789;28;20461;-48
2024/03/18 05:19:41;;;;;;;5.55;3.88;;;;;;;;;;2062743;28;20027;-47
2024/03/18 05:20:43;;;;;;;4.60;3.70;;;;;;;;;;2064974;28;20023;-47
2024/03/18 05:21:44;;;;;;;4.22;2.85;;;;;;;;;;2060565;28;20014;-48
2024/03/18 05:22:45;;;;;;;6.10;3.30;;;;;;;;;;2064658;28;20644;-47
2024/03/18 05:23:47;;;;;;;5.78;3.22;;;;;;;;;;2059277;28;20545;-48
2024/03/18 05:24:48;;;;;;;7.00;2.72;;;;;;;;;;2062708;28;20085;-48
2024/03/18 05:25:52;;;;;;;4.72;2.85;;;;;;;;;;2065131;28;20033;-47
2024/03/18 05:26:53;;;;;;;4.68;3.10;;;;;;;;;;2064300;28;20033;-47
2024/03/18 05:27:54;;;;;;;5.93;3.40;;;;;;;;;;2060568;28;20022;-48
2024/03/18 05:28:56;;;;;;;5.47;3.40;;;;;;;;;;2064934;28;20400;-47
2024/03/18 05:29:57;;;;;;;3.78;2.63;;;;;;;;;;2062653;28;20062;-47
2024/03/18 05:30:58;;;;;;;6.75;3.50;;;;;;;;;;2057892;28;20117;-47
2024/03/18 05:32:06;;;;;;;3.97;3.00;;;;;;;;;;2064423;28;20531;-46
2024/03/18 05:33:07;;;;;;;5.88;3.30;;;;;;;;;;2065033;28;20089;-47
2024/03/18 05:34:09;;;;;;;5.90;3.55;;;;;;;;;;2064933;28;20026;-46
2024/03/18 05:35:10;;;;;;;5.43;2.92;;;;;;;;;;2060191;28;20383;-48
2024/03/18 05:36:11;;;;;;;6.03;3.50;;;;;;;;;;2060821;28;20026;-47
2024/03/18 05:37:12;;;;;;;5.05;3.60;;;;;;;;;;2057053;28;20417;-47
2024/03/18 05:38:14;;;;;;;4.88;3.30;;;;;;;;;;2064319;28;20026;-48
2024/03/18 05:39:15;;;;;;;4.72;3.33;;;;;;;;;;2065051;28;20018;-47
2024/03/18 05:40:16;;;;;;;6.05;3.58;;;;;;;;;;2064265;28;20022;-47
2024/03/18 05:41:18;;;;;;;5.20;3.47;;;;;;;;;;2056339;28;20022;-47
2024/03/18 05:42:19;;;;;;;4.68;3.25;;;;;;;;;;2056465;28;20098;-46
2024/03/18 05:43:20;;;;;;;5.85;3.17;;;;;;;;;;2063350;28;20553;-47
2024/03/18 05:44:22;;;;;;;6.15;3.55;;;;;;;;;;2060877;28;20117;-47
2024/03/18 05:45:23;;;;;;;6.10;3.38;;;;;;;;;;2065122;28;20026;-47
2024/03/18 05:46:24;;;;;;;4.85;3.17;;;;;;;;;;2064670;28;20033;-47
2024/03/18 05:47:26;;;;;;;5.47;3.47;;;;;;;;;;2064267;28;20640;-47
2024/03/18 05:48:27;;;;;;;4.40;3.00;;;;;;;;;;2064223;28;20026;-47
2024/03/18 05:49:28;;;;;;;4.65;3.20;;;;;;;;;;2064647;28;20053;-47
2024/03/18 05:50:29;;;;;;;4.97;3.40;;;;;;;;;;2064730;28;20035;-47
2024/03/18 05:51:31;;;;;;;5.13;3.30;;;;;;;;;;2064834;28;20026;-47
2024/03/18 05:52:33;;;;;;;5.00;3.80;;;;;;;;;;2064676;28;20097;-47
2024/03/18 05:53:34;;;;;;;5.72;3.15;;;;;;;;;;2064911;28;20030;-46
2024/03/18 05:54:35;;;;;;;5.38;3.47;;;;;;;;;;2064868;28;20015;-48
2024/03/18 05:55:37;;;;;;;5.03;3.28;;;;;;;;;;2064723;28;20440;-46
2024/03/18 05:56:39;;;;;;;3.65;2.85;;;;;;;;;;2064258;28;20516;-48
2024/03/18 05:57:40;;;;;;;5.55;3.80;;;;;;;;;;2064065;28;20030;-48
2024/03/18 05:58:41;;;;;;;5.70;3.70;;;;;;;;;;2064143;28;20038;-49
2024/03/18 05:59:43;;;;;;;4.88;3.25;;;;;;;;;;2056152;28;20058;-49
2024/03/18 06:00:44;;;;;;;5.47;3.60;;;;;;;;;;2059505;28;20038;-49
2024/03/18 06:01:45;;;;;;;7.78;3.55;;;;;;;;;;2057513;28;20031;-48
2024/03/18 06:02:47;;;;;;;5.70;3.63;;;;;;;;;;2064829;28;20628;-48
2024/03/18 06:03:48;;;;;;;4.35;3.15;;;;;;;;;;2064735;28;20481;-49
2024/03/18 06:04:50;;;;;;;4.22;3.30;;;;;;;;;;2063441;28;20061;-50
2024/03/18 06:05:51;;;;;;;5.15;3.33;;;;;;;;;;2055204;28;20023;-47
2024/03/18 06:06:52;;;;;;;3.55;2.83;;;;;;;;;;2064161;28;20026;-49
2024/03/18 06:07:53;;;;;;;5.28;3.78;;;;;;;;;;2064880;28;20089;-49
2024/03/18 06:08:55;;;;;;;5.22;3.47;;;;;;;;;;2064707;28;20027;-47
2024/03/18 06:09:56;;;;;;;5.18;3.20;;;;;;;;;;2064111;28;20022;-47
2024/03/18 06:10:57;;;;;;;6.03;3.50;;;;;;;;;;2064265;28;20021;-48